Time;durP1;ratioP1;P1;durP2;ratioP2;P2;SDS_P1;SDS_P2;PMS_P1;PMS_P2;Temp;Humidity;BMP_temperature;BMP_pressure;BME280_temperature;BME280_humidity;BME280_pressure;Samples;Min_cycle;Max_cycle;Signal;HPM_P1;HPM_P2
2023/11/15 00:00:56;;;;;;;33.58;21.88;;;;;;;11.58;100.00;97925.25;5086525;28;20633;-67
2023/11/15 00:03:22;;;;;;;31.08;21.13;;;;;;;11.59;100.00;97945.91;5068535;28;20024;-67
2023/11/15 00:05:48;;;;;;;33.90;21.08;;;;;;;11.62;100.00;97939.53;5072855;28;20024;-66
2023/11/15 00:08:14;;;;;;;34.70;21.50;;;;;;;11.51;100.00;97922.47;5092888;28;20096;-68
2023/11/15 00:10:42;;;;;;;34.15;21.67;;;;;;;11.46;100.00;97923.00;5072542;28;20036;-66
2023/11/15 00:13:10;;;;;;;35.38;21.90;;;;;;;11.59;100.00;97916.44;5074121;27;20035;-69
2023/11/15 00:15:40;;;;;;;37.35;22.00;;;;;;;11.64;100.00;97921.94;5092634;28;20877;-67
2023/11/15 00:18:06;;;;;;;35.60;22.90;;;;;;;11.42;100.00;97911.28;5083646;28;20038;-66
2023/11/15 00:20:35;;;;;;;32.13;21.85;;;;;;;11.57;100.00;97942.63;5089671;28;20024;-66
2023/11/15 00:23:04;;;;;;;32.27;21.50;;;;;;;11.64;100.00;97927.97;5092093;28;20275;-67
2023/11/15 00:25:30;;;;;;;35.53;23.20;;;;;;;11.53;100.00;97916.13;5089452;28;20028;-67
2023/11/15 00:27:58;;;;;;;37.28;22.15;;;;;;;11.65;100.00;97932.19;5088607;28;20772;-68
2023/11/15 00:30:24;;;;;;;36.40;22.25;;;;;;;11.67;100.00;97932.84;5091236;28;20416;-66
2023/11/15 00:32:50;;;;;;;36.95;22.85;;;;;;;11.76;100.00;97954.47;5084656;28;20031;-70
2023/11/15 00:35:16;;;;;;;34.70;22.48;;;;;;;11.80;100.00;97928.91;5084285;28;20020;-67
2023/11/15 00:37:42;;;;;;;33.28;21.55;;;;;;;11.80;100.00;97940.13;5076181;28;20440;-66
2023/11/15 00:40:11;;;;;;;35.65;21.85;;;;;;;11.67;100.00;97938.06;5086320;28;20740;-69
2023/11/15 00:42:39;;;;;;;35.13;22.58;;;;;;;11.50;100.00;97903.44;5091800;28;20032;-70
2023/11/15 00:45:08;;;;;;;35.30;20.70;;;;;;;11.60;100.00;97947.50;5090810;28;20019;-68
2023/11/15 00:47:39;;;;;;;35.70;22.67;;;;;;;11.42;100.00;97928.69;5075731;28;20142;-69
2023/11/15 00:50:08;;;;;;;36.50;22.60;;;;;;;11.39;100.00;97940.25;5089969;28;20118;-72
2023/11/15 00:52:34;;;;;;;33.10;22.35;;;;;;;11.43;100.00;97945.94;5088561;28;20052;-67
2023/11/15 00:55:02;;;;;;;32.35;22.10;;;;;;;11.38;100.00;97930.81;5078500;28;20033;-66
2023/11/15 00:57:30;;;;;;;37.50;21.83;;;;;;;11.47;100.00;97916.00;5057027;28;20186;-66
2023/11/15 00:59:55;;;;;;;36.10;21.27;;;;;;;11.49;100.00;97930.44;5082041;28;20030;-66
2023/11/15 01:02:21;;;;;;;27.42;20.10;;;;;;;11.19;100.00;97932.00;5086922;28;20031;-67
2023/11/15 01:04:50;;;;;;;30.60;20.77;;;;;;;11.31;100.00;97933.25;5091116;28;20031;-65
2023/11/15 01:07:15;;;;;;;32.15;20.80;;;;;;;11.32;100.00;97934.09;5075404;28;20070;-68
2023/11/15 01:09:41;;;;;;;32.67;21.13;;;;;;;11.24;100.00;97954.91;5074211;28;20589;-67
2023/11/15 01:12:07;;;;;;;30.50;19.15;;;;;;;11.12;100.00;97947.44;5093821;28;20099;-71
2023/11/15 01:14:37;;;;;;;28.83;20.05;;;;;;;11.09;100.00;97949.56;5088876;28;20043;-67
2023/11/15 01:17:06;;;;;;;29.98;20.75;;;;;;;11.03;100.00;97938.03;5087114;28;20059;-65
2023/11/15 01:19:32;;;;;;;29.30;20.27;;;;;;;11.02;100.00;97948.59;5083554;28;20031;-67
2023/11/15 01:22:02;;;;;;;27.20;20.02;;;;;;;10.81;100.00;97943.91;5091113;28;20391;-66
2023/11/15 01:24:28;;;;;;;27.75;19.75;;;;;;;10.91;100.00;97958.34;5084468;28;20118;-66
2023/11/15 01:26:55;;;;;;;27.25;19.73;;;;;;;10.72;100.00;97909.28;5074664;28;20651;-67
2023/11/15 01:29:23;;;;;;;27.55;19.45;;;;;;;10.87;100.00;97930.22;5093634;28;20543;-67
2023/11/15 01:31:51;;;;;;;26.20;18.33;;;;;;;10.62;100.00;97912.00;5087394;28;20032;-66
2023/11/15 01:34:18;;;;;;;24.48;17.92;;;;;;;10.82;100.00;97956.72;5093323;28;20626;-67
2023/11/15 01:36:48;;;;;;;26.98;19.15;;;;;;;10.82;100.00;97950.72;5071703;28;20055;-66
2023/11/15 01:39:16;;;;;;;22.95;15.77;;;;;;;10.72;100.00;97956.88;5079324;28;20028;-69
2023/11/15 01:41:48;;;;;;;29.20;19.50;;;;;;;10.75;100.00;97946.16;5071229;28;20492;-66
2023/11/15 01:44:15;;;;;;;25.02;18.45;;;;;;;10.73;100.00;97923.88;5085184;28;20092;-67
2023/11/15 01:46:41;;;;;;;32.05;20.80;;;;;;;11.06;100.00;97944.69;5091506;28;20042;-67
2023/11/15 01:49:09;;;;;;;26.77;20.10;;;;;;;10.77;100.00;97913.00;5075281;28;20028;-68
2023/11/15 01:51:37;;;;;;;29.40;21.00;;;;;;;10.96;100.00;97935.25;5096704;28;20030;-68
2023/11/15 01:54:07;;;;;;;28.88;19.50;;;;;;;11.03;100.00;97930.22;5092091;28;20106;-65
2023/11/15 01:56:34;;;;;;;25.88;19.27;;;;;;;10.95;100.00;97938.84;5094027;28;20156;-67
2023/11/15 01:59:00;;;;;;;25.25;18.60;;;;;;;10.91;100.00;97953.13;5076284;28;20732;-65
2023/11/15 02:01:26;;;;;;;29.27;17.83;;;;;;;10.60;100.00;97918.38;5092588;28;20234;-68
2023/11/15 02:03:56;;;;;;;24.48;17.33;;;;;;;10.60;100.00;97926.16;5079430;28;20525;-67
2023/11/15 02:06:30;;;;;;;22.50;17.50;;;;;;;10.89;100.00;97964.69;5092470;28;20113;-67
2023/11/15 02:08:56;;;;;;;27.00;18.08;;;;;;;10.86;100.00;97965.84;5093623;28;20020;-66
2023/11/15 02:11:22;;;;;;;19.48;14.68;;;;;;;10.87;100.00;97951.03;5094290;28;20127;-67
2023/11/15 02:13:48;;;;;;;24.65;15.93;;;;;;;10.75;100.00;97927.97;5077594;28;20217;-65
2023/11/15 02:16:13;;;;;;;24.88;16.05;;;;;;;10.95;100.00;97956.22;5077636;28;20691;-69
2023/11/15 02:18:39;;;;;;;19.48;15.18;;;;;;;10.93;100.00;97958.19;5088772;28;20105;-66
2023/11/15 02:21:05;;;;;;;23.10;15.40;;;;;;;10.93;100.00;97968.59;5075582;28;20032;-67
2023/11/15 02:23:33;;;;;;;17.45;11.68;;;;;;;10.88;100.00;97983.84;5096880;28;20082;-67
2023/11/15 02:26:00;;;;;;;21.90;15.52;;;;;;;10.88;100.00;97970.84;5094204;28;20088;-67
2023/11/15 02:28:28;;;;;;;22.60;15.77;;;;;;;10.90;100.00;97963.72;5078706;28;20543;-65
2023/11/15 02:30:56;;;;;;;21.83;15.20;;;;;;;11.10;100.00;97972.81;5093632;28;20040;-71
2023/11/15 02:33:23;;;;;;;24.17;15.77;;;;;;;10.97;100.00;97977.72;5078250;28;20036;-66
2023/11/15 02:35:51;;;;;;;21.23;15.18;;;;;;;10.86;100.00;97971.03;5091538;28;20032;-64
2023/11/15 02:38:16;;;;;;;22.40;14.30;;;;;;;10.75;100.00;97946.16;5090070;28;20156;-65
2023/11/15 02:40:45;;;;;;;21.13;14.18;;;;;;;10.87;100.00;97987.44;5098080;28;20751;-64
2023/11/15 02:43:13;;;;;;;22.08;14.80;;;;;;;10.91;100.00;97978.34;5095747;28;20027;-66
2023/11/15 02:45:41;;;;;;;19.38;13.93;;;;;;;10.95;100.00;97972.66;5093608;28;20039;-65
2023/11/15 02:48:06;;;;;;;17.73;13.68;;;;;;;11.01;100.00;97975.59;5095194;28;20076;-70
2023/11/15 02:50:32;;;;;;;18.88;13.88;;;;;;;10.93;100.00;97977.22;5065872;28;20191;-68
2023/11/15 02:53:00;;;;;;;21.58;13.63;;;;;;;10.94;100.00;97978.84;5096361;28;20055;-67
2023/11/15 02:55:25;;;;;;;19.85;14.10;;;;;;;10.93;100.00;97982.44;5093743;28;20123;-67
2023/11/15 02:57:51;;;;;;;20.48;13.98;;;;;;;10.81;100.00;97967.31;5095556;28;20039;-66
2023/11/15 03:00:16;;;;;;;19.00;13.55;;;;;;;10.79;100.00;97990.88;5093138;28;20027;-69
2023/11/15 03:02:44;;;;;;;19.70;13.23;;;;;;;10.86;100.00;97980.59;5096325;28;20485;-68
2023/11/15 03:05:10;;;;;;;17.73;12.60;;;;;;;10.85;100.00;97984.19;5091870;28;20091;-65
2023/11/15 03:07:36;;;;;;;15.88;11.85;;;;;;;10.91;100.00;97999.16;5076769;28;20066;-64
2023/11/15 03:10:08;;;;;;;16.20;11.40;;;;;;;10.89;100.00;97998.50;5069214;28;20034;-66
2023/11/15 03:12:34;;;;;;;16.02;11.23;;;;;;;10.92;100.00;97986.00;5091948;28;20108;-67
2023/11/15 03:14:59;;;;;;;17.05;10.68;;;;;;;10.96;100.00;97995.09;5075105;28;20032;-66
2023/11/15 03:17:25;;;;;;;18.98;11.80;;;;;;;11.01;100.00;97992.00;5069312;28;20104;-68
2023/11/15 03:19:50;;;;;;;14.75;10.50;;;;;;;11.08;100.00;98007.75;5077524;28;20024;-68
2023/11/15 03:22:18;;;;;;;13.88;9.68;;;;;;;11.00;100.00;98007.78;5079265;28;20899;-70
2023/11/15 03:24:45;;;;;;;14.18;10.20;;;;;;;10.83;100.00;98005.16;5068206;28;20028;-67
2023/11/15 03:27:11;;;;;;;14.60;10.50;;;;;;;10.88;100.00;98002.91;5083081;28;20611;-64
2023/11/15 03:29:37;;;;;;;15.65;10.95;;;;;;;10.59;100.00;97985.16;5077401;28;20039;-64
2023/11/15 03:32:02;;;;;;;15.15;10.50;;;;;;;10.81;100.00;98024.50;5079480;28;20031;-67
2023/11/15 03:34:29;;;;;;;13.70;10.05;;;;;;;10.76;100.00;98025.78;5095471;28;20614;-66
2023/11/15 03:36:54;;;;;;;15.70;10.77;;;;;;;10.68;100.00;98014.59;5086022;28;20148;-64
2023/11/15 03:39:20;;;;;;;16.40;11.68;;;;;;;10.78;100.00;98030.84;5084946;28;20153;-69
2023/11/15 03:41:48;;;;;;;14.40;10.52;;;;;;;10.70;100.00;98046.44;5081678;28;20892;-64
2023/11/15 03:44:15;;;;;;;15.60;11.02;;;;;;;10.68;100.00;98030.97;5095998;28;20088;-69
2023/11/15 03:46:43;;;;;;;15.02;10.25;;;;;;;10.69;100.00;98019.59;5094514;28;20088;-70
2023/11/15 03:49:08;;;;;;;14.55;10.38;;;;;;;10.58;100.00;98020.72;5078417;28;20057;-67
2023/11/15 03:51:36;;;;;;;15.80;10.55;;;;;;;10.60;100.00;98025.75;5076016;28;20027;-67
2023/11/15 03:54:01;;;;;;;13.30;9.38;;;;;;;10.66;100.00;98012.13;5091990;28;20020;-66
2023/11/15 03:56:27;;;;;;;14.05;9.25;;;;;;;10.60;100.00;98023.16;5093569;28;20104;-67
2023/11/15 03:58:52;;;;;;;15.38;9.85;;;;;;;10.48;100.00;98016.66;5076665;28;20127;-70
2023/11/15 04:01:18;;;;;;;14.20;8.88;;;;;;;10.55;100.00;98015.84;5089007;28;20391;-67
2023/11/15 04:03:43;;;;;;;11.60;8.30;;;;;;;10.71;100.00;98037.63;5087331;28;20106;-66
2023/11/15 04:06:09;;;;;;;11.20;7.65;;;;;;;10.76;100.00;98033.59;5075481;28;20069;-67
2023/11/15 04:08:44;;;;;;;11.60;7.15;;;;;;;10.82;100.00;98026.94;5092693;28;20098;-67
2023/11/15 04:11:10;;;;;;;9.35;6.43;;;;;;;11.11;100.00;98028.25;5079133;28;20105;-71
2023/11/15 04:13:35;;;;;;;8.73;5.95;;;;;;;11.14;100.00;98033.16;5066523;28;20028;-66
2023/11/15 04:16:03;;;;;;;11.73;6.60;;;;;;;11.06;100.00;98033.13;5089036;28;20150;-65
2023/11/15 04:18:30;;;;;;;8.90;5.88;;;;;;;11.00;100.00;98024.19;5095443;28;20530;-69
2023/11/15 04:20:56;;;;;;;11.82;7.13;;;;;;;10.96;100.00;98038.50;5088011;28;20024;-64
2023/11/15 04:23:23;;;;;;;16.27;7.85;;;;;;;10.87;100.00;98034.25;5094539;28;20027;-67
2023/11/15 04:25:48;;;;;;;11.77;7.55;;;;;;;10.94;100.00;98038.66;5093843;28;20054;-66
2023/11/15 04:28:19;;;;;;;9.95;6.80;;;;;;;10.73;100.00;98023.53;5072138;28;20576;-64
2023/11/15 04:30:45;;;;;;;9.68;6.50;;;;;;;10.91;100.00;98058.97;5090965;28;20046;-68
2023/11/15 04:33:11;;;;;;;12.00;6.88;;;;;;;10.99;100.00;98051.19;5088640;28;20382;-65
2023/11/15 04:35:36;;;;;;;10.55;7.03;;;;;;;10.94;100.00;98062.06;5066311;28;20135;-67
2023/11/15 04:38:05;;;;;;;11.95;7.30;;;;;;;10.81;100.00;98074.72;5089477;28;20031;-66
2023/11/15 04:40:35;;;;;;;13.83;6.50;;;;;;;10.65;100.00;98053.88;5093986;28;20099;-71
2023/11/15 04:43:00;;;;;;;;;;;;;;;10.72;100.00;98080.88;5095775;28;20474;-69
2023/11/15 04:45:25;;;;;;;10.43;6.70;;;;;;;10.87;100.00;98081.06;5077221;28;19915;-70
2023/11/15 04:47:53;;;;;;;10.32;6.10;;;;;;;10.96;100.00;98085.31;5091263;28;20016;-69
2023/11/15 04:50:19;;;;;;;9.23;5.50;;;;;;;11.10;100.00;98095.09;5092610;28;20039;-68
2023/11/15 04:52:44;;;;;;;9.05;6.22;;;;;;;11.10;100.00;98095.09;5075184;28;20039;-67
2023/11/15 04:55:10;;;;;;;9.00;5.68;;;;;;;11.11;100.00;98094.13;5091246;28;20073;-68
2023/11/15 04:57:35;;;;;;;13.00;6.70;;;;;;;11.04;100.00;98061.91;5090565;28;21338;-66
2023/11/15 05:00:04;;;;;;;8.40;5.18;;;;;;;11.18;100.00;98083.88;5074165;28;20109;-69
2023/11/15 05:02:30;;;;;;;9.05;4.97;;;;;;;11.05;100.00;98079.16;5092985;28;20114;-67
2023/11/15 05:04:55;;;;;;;8.45;4.60;;;;;;;11.11;100.00;98072.50;5077203;28;20043;-69
2023/11/15 05:07:24;;;;;;;8.88;4.95;;;;;;;11.27;100.00;98093.31;5079825;28;20089;-67
2023/11/15 05:09:53;;;;;;;10.10;5.55;;;;;;;11.10;100.00;98095.09;5088674;28;20019;-68
2023/11/15 05:12:21;;;;;;;10.85;6.10;;;;;;;10.96;100.00;98100.94;5083831;28;20032;-64
2023/11/15 05:14:46;;;;;;;8.88;6.00;;;;;;;10.92;100.00;98107.44;5090956;28;20020;-65
2023/11/15 05:17:12;;;;;;;9.82;5.93;;;;;;;11.07;100.00;98118.84;5090267;28;20403;-69
2023/11/15 05:19:40;;;;;;;9.18;5.90;;;;;;;10.84;100.00;98082.22;5094317;28;20023;-68
2023/11/15 05:22:07;;;;;;;9.55;6.00;;;;;;;10.81;100.00;98111.13;5092321;28;20043;-67
2023/11/15 05:24:36;;;;;;;10.25;5.70;;;;;;;10.87;100.00;98123.50;5076875;28;20028;-68
2023/11/15 05:27:03;;;;;;;10.23;5.60;;;;;;;10.66;100.00;98092.72;5093857;28;20051;-66
2023/11/15 05:29:30;;;;;;;9.60;5.75;;;;;;;10.88;100.00;98135.53;5073210;28;20027;-66
2023/11/15 05:31:55;;;;;;;10.15;5.68;;;;;;;10.67;100.00;98094.34;5090373;28;20979;-69
2023/11/15 05:34:21;;;;;;;9.00;5.70;;;;;;;10.83;100.00;98129.19;5073059;28;20140;-69
2023/11/15 05:36:46;;;;;;;9.80;5.30;;;;;;;10.75;100.00;98141.19;5093030;28;20036;-71
2023/11/15 05:39:14;;;;;;;8.85;5.60;;;;;;;10.50;100.00;98116.88;5077650;28;20646;-67
2023/11/15 05:41:39;;;;;;;10.73;5.95;;;;;;;10.70;100.00;98133.03;5090257;28;20028;-69
2023/11/15 05:44:10;;;;;;;8.80;4.72;;;;;;;10.67;100.00;98137.75;5093229;28;20016;-64
2023/11/15 05:46:41;;;;;;;9.90;5.22;;;;;;;10.70;100.00;98145.25;5075333;28;20088;-67
2023/11/15 05:49:06;;;;;;;8.15;5.10;;;;;;;10.72;100.00;98140.69;5094049;28;20122;-68
2023/11/15 05:51:33;;;;;;;7.70;4.53;;;;;;;10.64;100.00;98154.47;5084601;28;20046;-70
2023/11/15 05:54:04;;;;;;;7.32;4.38;;;;;;;10.66;100.00;98149.09;5063753;28;20100;-67
2023/11/15 05:56:32;;;;;;;7.97;4.85;;;;;;;10.50;100.00;98118.66;5061624;28;20207;-68
2023/11/15 05:58:57;;;;;;;8.93;4.88;;;;;;;10.68;100.00;98160.19;5091103;28;20028;-67
2023/11/15 06:01:25;;;;;;;8.70;5.10;;;;;;;10.69;100.00;98169.59;5085482;28;20062;-68
2023/11/15 06:03:53;;;;;;;8.25;4.65;;;;;;;10.76;100.00;98173.19;5076925;28;20696;-69
2023/11/15 06:06:19;;;;;;;9.60;5.03;;;;;;;10.84;100.00;98177.63;5064444;28;20126;-69
2023/11/15 06:08:45;;;;;;;6.90;4.18;;;;;;;10.73;100.00;98178.72;5061016;28;20100;-70
2023/11/15 06:11:10;;;;;;;8.30;4.90;;;;;;;10.64;100.00;98170.09;5066967;28;20036;-67
2023/11/15 06:13:39;;;;;;;7.55;4.20;;;;;;;10.65;100.00;98166.50;5086905;28;20028;-65
2023/11/15 06:16:08;;;;;;;7.90;4.70;;;;;;;10.71;100.00;98158.06;5062339;28;20027;-66
2023/11/15 06:18:36;;;;;;;7.97;4.47;;;;;;;10.45;100.00;98126.91;5085922;28;20039;-68
2023/11/15 06:21:02;;;;;;;7.55;4.10;;;;;;;10.88;100.00;98160.72;5086047;28;20028;-68
2023/11/15 06:23:31;;;;;;;7.43;4.60;;;;;;;10.93;100.00;98177.50;5087969;28;20039;-69
2023/11/15 06:25:59;;;;;;;7.43;4.00;;;;;;;10.86;100.00;98183.47;5073113;28;20642;-64
2023/11/15 06:28:24;;;;;;;6.72;4.00;;;;;;;10.65;100.00;98204.69;5075995;28;20424;-64
2023/11/15 06:30:50;;;;;;;8.35;4.03;;;;;;;10.44;100.00;98169.50;5075175;28;20023;-70
2023/11/15 06:33:15;;;;;;;7.13;3.55;;;;;;;10.62;100.00;98197.19;5092396;28;20042;-70
2023/11/15 06:35:41;;;;;;;6.03;3.35;;;;;;;10.52;100.00;98195.53;5076674;27;20474;-68
2023/11/15 06:38:06;;;;;;;7.80;4.00;;;;;;;10.69;100.00;98193.81;5081084;28;20817;-67
2023/11/15 06:40:32;;;;;;;6.80;3.67;;;;;;;10.62;100.00;98160.78;5092580;27;20534;-65
2023/11/15 06:42:57;;;;;;;6.57;3.67;;;;;;;10.81;100.00;98194.38;5091746;28;20027;-68
2023/11/15 06:45:23;;;;;;;8.20;4.05;;;;;;;10.81;100.00;98203.97;5094572;28;20668;-67
2023/11/15 06:47:53;;;;;;;6.72;3.67;;;;;;;10.82;100.00;98197.78;5076839;28;20100;-65
2023/11/15 06:50:19;;;;;;;6.00;3.30;;;;;;;10.91;100.00;98202.84;5076706;28;20023;-65
2023/11/15 06:52:45;;;;;;;6.00;3.40;;;;;;;10.91;100.00;98209.84;5087298;28;20493;-68
2023/11/15 06:55:11;;;;;;;7.38;3.38;;;;;;;10.92;100.00;98214.06;5078843;28;20573;-65
2023/11/15 06:57:37;;;;;;;7.03;3.80;;;;;;;10.89;100.00;98224.78;5093772;28;20028;-67
2023/11/15 07:00:08;;;;;;;7.15;3.90;;;;;;;10.96;100.00;98225.78;5092120;28;20065;-70
2023/11/15 07:02:42;;;;;;;9.07;4.53;;;;;;;11.02;100.00;98219.16;5086687;28;20036;-68
2023/11/15 07:05:09;;;;;;;7.07;3.63;;;;;;;11.05;100.00;98213.63;5092069;28;20023;-68
2023/11/15 07:07:35;;;;;;;5.70;3.33;;;;;;;11.19;100.00;98230.41;5094538;28;20058;-68
2023/11/15 07:10:06;;;;;;;6.28;3.40;;;;;;;11.25;100.00;98220.19;5091536;28;20549;-68
2023/11/15 07:12:35;;;;;;;6.30;3.63;;;;;;;11.16;100.00;98223.75;5077772;28;20115;-68
2023/11/15 07:15:07;;;;;;;6.60;3.55;;;;;;;11.13;100.00;98222.28;5079637;28;20026;-68
2023/11/15 07:17:33;;;;;;;7.05;3.85;;;;;;;11.10;100.00;98233.00;5073497;28;20027;-69
2023/11/15 07:19:58;;;;;;;6.25;3.50;;;;;;;11.17;100.00;98233.19;5077155;28;20038;-68
2023/11/15 07:22:26;;;;;;;6.38;3.25;;;;;;;11.09;100.00;98238.38;5091012;28;20028;-67
2023/11/15 07:24:53;;;;;;;5.57;3.10;;;;;;;11.16;100.00;98244.56;5094299;28;20032;-65
2023/11/15 07:27:18;;;;;;;6.05;3.28;;;;;;;11.22;100.00;98249.13;5071175;28;20610;-66
2023/11/15 07:29:46;;;;;;;6.85;3.28;;;;;;;11.24;100.00;98246.38;5097980;28;20123;-68
2023/11/15 07:32:12;;;;;;;5.78;3.28;;;;;;;11.16;100.00;98244.56;5074149;28;20024;-69
2023/11/15 07:34:39;;;;;;;6.28;3.70;;;;;;;11.14;100.00;98243.91;5077661;28;20091;-68
2023/11/15 07:37:04;;;;;;;6.88;3.25;;;;;;;11.19;100.00;98251.22;5094182;28;20031;-68
2023/11/15 07:39:32;;;;;;;6.25;3.20;;;;;;;11.09;100.00;98228.75;5088919;28;20035;-68
2023/11/15 07:41:59;;;;;;;7.43;3.85;;;;;;;11.05;100.00;98265.66;5076297;28;20095;-68
2023/11/15 07:44:30;;;;;;;5.70;3.17;;;;;;;11.18;100.00;98267.84;5090913;28;20489;-65
2023/11/15 07:46:58;;;;;;;6.00;3.22;;;;;;;11.19;100.00;98270.28;5086534;28;20043;-67
2023/11/15 07:49:24;;;;;;;6.32;2.97;;;;;;;10.83;100.00;98223.63;5076263;28;20020;-71
2023/11/15 07:51:55;;;;;;;6.45;2.70;;;;;;;10.91;100.00;98226.25;5091524;28;20053;-68
2023/11/15 07:54:23;;;;;;;6.28;2.80;;;;;;;11.10;100.00;98271.22;5084219;28;20721;-68
2023/11/15 07:56:51;;;;;;;6.78;2.95;;;;;;;11.11;100.00;98265.84;5084291;28;20039;-69
2023/11/15 07:59:16;;;;;;;6.70;2.97;;;;;;;10.98;100.00;98244.66;5076585;28;21314;-66
2023/11/15 08:01:44;;;;;;;5.10;2.58;;;;;;;11.24;100.00;98267.19;5091939;28;20028;-66
2023/11/15 08:04:12;;;;;;;5.47;2.60;;;;;;;11.02;100.00;98237.34;5069626;28;20406;-66
2023/11/15 08:06:38;;;;;;;7.90;2.92;;;;;;;11.27;100.00;98269.50;5084185;28;20028;-65
2023/11/15 08:09:06;;;;;;;5.70;2.88;;;;;;;11.31;100.00;98283.81;5094837;28;20034;-70
2023/11/15 08:11:34;;;;;;;5.63;2.50;;;;;;;11.19;100.00;98278.09;5087912;28;20114;-66
2023/11/15 08:14:06;;;;;;;6.32;3.20;;;;;;;11.22;100.00;98279.56;5087982;28;20023;-64
2023/11/15 08:16:37;;;;;;;6.93;2.50;;;;;;;11.36;100.00;98263.34;5085432;28;20559;-73
2023/11/15 08:19:03;;;;;;;5.65;2.55;;;;;;;11.59;100.00;98280.97;5076132;28;21277;-65
2023/11/15 08:21:29;;;;;;;5.88;2.50;;;;;;;11.57;100.00;98288.13;5082760;28;20028;-68
2023/11/15 08:23:54;;;;;;;5.05;2.42;;;;;;;11.35;100.00;98253.88;5075799;28;20330;-65
2023/11/15 08:26:21;;;;;;;6.65;2.60;;;;;;;11.08;100.00;98240.16;5084434;28;20581;-67
2023/11/15 08:28:47;;;;;;;5.93;2.28;;;;;;;11.11;100.00;98258.03;5077966;28;20682;-73
2023/11/15 08:31:15;;;;;;;6.10;3.30;;;;;;;11.45;100.00;98304.03;5071295;28;20139;-69
2023/11/15 08:33:43;;;;;;;7.95;3.33;;;;;;;11.48;99.96;98308.09;5091131;28;20074;-68
2023/11/15 08:36:12;;;;;;;9.60;5.13;;;;;;;11.27;100.00;98270.31;5068278;28;20050;-68
2023/11/15 08:38:37;;;;;;;10.05;5.05;;;;;;;11.83;93.25;98306.28;5090828;28;20036;-68
2023/11/15 08:41:05;;;;;;;9.40;4.75;;;;;;;12.00;90.83;98315.75;5073040;28;20039;-68
2023/11/15 08:43:32;;;;;;;7.22;3.65;;;;;;;12.05;92.22;98313.50;5092986;28;20024;-68
2023/11/15 08:46:04;;;;;;;7.07;3.20;;;;;;;12.07;92.03;98321.97;5088149;28;20399;-68
2023/11/15 08:48:33;;;;;;;6.35;2.55;;;;;;;12.26;87.80;98312.19;5091415;28;20139;-67
2023/11/15 08:51:02;;;;;;;5.97;2.60;;;;;;;12.06;84.85;98283.84;5080195;27;20118;-67
2023/11/15 08:53:32;;;;;;;6.15;2.55;;;;;;;12.60;78.31;98308.59;5069743;28;20135;-70
2023/11/15 08:56:02;;;;;;;5.93;1.83;;;;;;;12.68;75.57;98312.00;5074839;28;20476;-69
2023/11/15 08:58:28;;;;;;;5.35;1.30;;;;;;;12.79;74.88;98318.66;5094155;28;20031;-72
2023/11/15 09:00:57;;;;;;;3.67;1.40;;;;;;;12.82;77.60;98333.19;5091404;28;20023;-69
2023/11/15 09:03:23;;;;;;;5.70;2.77;;;;;;;12.80;70.73;98315.09;5076888;28;20665;-68
2023/11/15 09:05:49;;;;;;;4.70;2.10;;;;;;;12.83;70.44;98319.16;5091479;28;20557;-68
2023/11/15 09:08:18;;;;;;;4.80;1.80;;;;;;;12.96;69.65;98327.31;5092342;28;20788;-68
2023/11/15 09:10:44;;;;;;;4.22;1.13;;;;;;;13.03;66.96;98315.22;5073622;28;20809;-69
2023/11/15 09:13:09;;;;;;;4.20;1.63;;;;;;;13.02;70.36;98329.22;5081105;28;20035;-69
2023/11/15 09:15:35;;;;;;;4.40;1.90;;;;;;;13.01;70.23;98324.16;5072360;28;20080;-68
2023/11/15 09:18:04;;;;;;;3.50;1.30;;;;;;;13.02;65.60;98333.66;5091199;28;20339;-67
2023/11/15 09:20:34;;;;;;;3.00;1.10;;;;;;;13.14;64.14;98341.91;5069521;28;20039;-67
2023/11/15 09:23:00;;;;;;;6.38;1.40;;;;;;;13.06;63.07;98301.00;5071968;28;20486;-66
2023/11/15 09:25:30;;;;;;;7.03;1.73;;;;;;;13.45;60.60;98345.44;5089045;28;20035;-69
2023/11/15 09:28:02;;;;;;;3.60;0.80;;;;;;;13.53;59.52;98339.38;5076458;28;20546;-66
2023/11/15 09:30:33;;;;;;;2.33;0.70;;;;;;;13.37;58.36;98318.53;5092079;28;20035;-67
2023/11/15 09:32:59;;;;;;;3.45;0.77;;;;;;;13.57;60.52;98348.50;5092107;28;20024;-67
2023/11/15 09:35:27;;;;;;;4.07;1.02;;;;;;;13.30;61.47;98313.16;5075096;28;20035;-67
2023/11/15 09:37:53;;;;;;;3.10;0.90;;;;;;;13.55;60.18;98358.28;5090287;28;20159;-68
2023/11/15 09:40:20;;;;;;;2.97;0.90;;;;;;;13.72;59.61;98360.84;5074430;28;20688;-68
2023/11/15 09:42:53;;;;;;;3.80;1.27;;;;;;;13.81;61.27;98367.66;5073593;28;20034;-67
2023/11/15 09:45:23;;;;;;;3.88;1.00;;;;;;;13.85;60.98;98374.16;5087550;28;20592;-68
2023/11/15 09:47:53;;;;;;;4.88;0.90;;;;;;;14.17;58.90;98374.97;5072484;28;20031;-69
2023/11/15 09:50:23;;;;;;;1.63;0.60;;;;;;;14.42;55.58;98368.56;5074545;28;20032;-67
2023/11/15 09:52:50;;;;;;;2.58;0.80;;;;;;;14.66;55.63;98386.88;5092198;28;20548;-68
2023/11/15 09:55:21;;;;;;;3.95;1.30;;;;;;;14.59;62.70;98384.19;5085495;28;20028;-69
2023/11/15 09:57:51;;;;;;;3.70;0.90;;;;;;;14.49;57.20;98381.75;5082638;28;20039;-68
2023/11/15 10:00:19;;;;;;;2.65;0.95;;;;;;;14.90;53.06;98381.44;5091109;28;20022;-67
2023/11/15 10:02:45;;;;;;;2.42;0.80;;;;;;;15.12;50.47;98379.75;5089889;28;20296;-72
2023/11/15 10:05:19;;;;;;;3.53;0.90;;;;;;;15.33;49.40;98383.47;5093360;28;20028;-69
2023/11/15 10:07:50;;;;;;;2.15;0.70;;;;;;;15.28;49.72;98346.53;5094168;28;20054;-67
2023/11/15 10:10:25;;;;;;;3.05;0.70;;;;;;;15.43;49.76;98352.56;5090081;28;20500;-69
2023/11/15 10:12:53;;;;;;;2.42;0.70;;;;;;;15.88;46.10;98387.44;5093871;28;20034;-69
2023/11/15 10:15:29;;;;;;;2.58;0.65;;;;;;;16.10;46.45;98385.66;5075237;28;20114;-68
2023/11/15 10:17:55;;;;;;;2.75;0.80;;;;;;;16.18;45.77;98402.28;5094465;28;20027;-72
2023/11/15 10:20:25;;;;;;;2.55;0.65;;;;;;;16.06;45.33;98365.22;5090953;28;20418;-71
2023/11/15 10:22:57;;;;;;;1.27;0.55;;;;;;;16.31;43.69;98389.28;5092433;28;20426;-66
2023/11/15 10:25:25;;;;;;;1.70;0.63;;;;;;;16.40;43.39;98396.03;5095749;28;20032;-66
2023/11/15 10:28:07;;;;;;;1.52;0.60;;;;;;;16.49;43.43;98400.16;5091022;28;20079;-67
2023/11/15 10:30:36;;;;;;;1.83;0.50;;;;;;;16.50;43.65;98393.09;5082453;28;21014;-69
2023/11/15 10:33:13;;;;;;;1.15;0.38;;;;;;;16.64;40.87;98392.22;5085456;28;20043;-70
2023/11/15 10:35:38;;;;;;;1.80;0.50;;;;;;;16.80;40.76;98383.25;5078113;28;20038;-72
2023/11/15 10:38:09;;;;;;;1.70;0.50;;;;;;;16.66;40.46;98345.59;5091949;28;20032;-68
2023/11/15 10:40:38;;;;;;;0.43;0.30;;;;;;;16.90;39.05;98382.94;5076838;28;20106;-72
2023/11/15 10:43:04;;;;;;;1.40;0.40;;;;;;;17.08;40.38;98378.06;5096942;28;20027;-69
2023/11/15 10:45:35;;;;;;;1.02;0.30;;;;;;;17.13;38.74;98371.41;5088656;28;20040;-71
2023/11/15 10:48:04;;;;;;;1.42;0.30;;;;;;;17.27;37.73;98357.34;5088580;28;20650;-69
2023/11/15 10:50:33;;;;;;;0.40;0.10;;;;;;;17.34;37.69;98360.00;5090233;28;20031;-70
2023/11/15 10:53:02;;;;;;;0.82;0.20;;;;;;;17.27;39.00;98368.66;5079788;28;20089;-69
2023/11/15 10:55:28;;;;;;;0.75;0.20;;;;;;;17.48;34.87;98365.13;5094157;28;20055;-69
2023/11/15 10:58:02;;;;;;;1.05;0.30;;;;;;;17.66;35.18;98376.94;5084865;28;20035;-67
2023/11/15 11:00:30;;;;;;;1.23;0.30;;;;;;;17.68;34.77;98369.66;5092898;28;20097;-67
2023/11/15 11:02:59;;;;;;;0.80;0.30;;;;;;;17.72;35.33;98365.63;5091537;28;20056;-65
2023/11/15 11:05:50;;;;;;;0.63;0.13;;;;;;;17.70;39.62;98377.34;5089798;28;20027;-64
2023/11/15 11:08:37;;;;;;;0.50;0.10;;;;;;;17.75;35.80;98382.84;5090872;28;20461;-68
2023/11/15 11:11:08;;;;;;;0.00;0.00;;;;;;;17.74;39.01;98373.31;5086144;28;20973;-70
2023/11/15 11:13:40;;;;;;;0.43;0.00;;;;;;;17.58;37.70;98361.34;5090217;28;20603;-66
2023/11/15 11:16:30;;;;;;;0.75;0.20;;;;;;;17.82;31.87;98381.84;5071776;28;20073;-70
2023/11/15 11:19:13;;;;;;;0.30;0.10;;;;;;;18.07;31.88;98386.63;5089315;28;20510;-72
2023/11/15 11:22:03;;;;;;;2.28;0.30;;;;;;;17.80;37.78;98359.41;5089367;28;20044;-69
2023/11/15 11:24:31;;;;;;;;;;;;;;;17.85;37.23;98383.28;5089872;28;20074;-65